createdAt,value
2019-04-28T00:00:24.757Z,0.00
2019-04-28T00:01:24.769Z,0.00
2019-04-28T00:02:24.787Z,0.00
2019-04-28T00:03:24.810Z,0.00
2019-04-28T00:04:24.824Z,0.00
2019-04-28T00:05:24.843Z,0.00
2019-04-28T00:06:24.857Z,0.00
2019-04-28T00:07:24.873Z,0.00
2019-04-28T00:08:24.894Z,0.00
2019-04-28T00:09:24.910Z,0.00
2019-04-28T00:10:24.928Z,0.00
2019-04-28T00:11:24.943Z,0.00
2019-04-28T00:12:24.957Z,0.00
2019-04-28T00:13:24.978Z,0.00
2019-04-28T00:14:24.996Z,0.00
2019-04-28T00:15:25.014Z,0.00
2019-04-28T00:16:25.026Z,0.00
2019-04-28T00:17:25.056Z,0.00
2019-04-28T00:18:25.065Z,0.00
2019-04-28T00:19:25.074Z,0.00
2019-04-28T00:20:25.094Z,0.00
2019-04-28T00:21:25.113Z,0.00
2019-04-28T00:22:25.133Z,0.00
2019-04-28T00:23:25.148Z,0.00
2019-04-28T00:24:25.163Z,0.00
2019-04-28T00:25:25.179Z,0.00
2019-04-28T00:26:25.192Z,0.00
2019-04-28T00:27:25.208Z,0.00
2019-04-28T00:28:25.234Z,0.00
2019-04-28T00:29:37.544Z,0.00
2019-04-28T00:30:25.267Z,0.00
2019-04-28T00:31:25.283Z,0.00
2019-04-28T00:32:25.293Z,0.00
2019-04-28T00:33:25.314Z,0.00
2019-04-28T00:34:25.331Z,0.00
2019-04-28T00:35:25.348Z,0.00
2019-04-28T00:36:25.366Z,0.00
2019-04-28T00:37:25.381Z,0.00
2019-04-28T00:38:25.394Z,0.00
2019-04-28T00:39:25.414Z,0.00
2019-04-28T00:40:25.427Z,0.00
2019-04-28T00:41:25.449Z,0.00
2019-04-28T00:42:25.475Z,0.00
2019-04-28T00:43:25.478Z,0.00
2019-04-28T00:44:25.504Z,0.00
2019-04-28T00:45:25.522Z,0.00
2019-04-28T00:46:25.535Z,0.00
2019-04-28T00:47:25.552Z,0.00
2019-04-28T00:48:25.568Z,0.00
2019-04-28T00:49:25.585Z,0.00
2019-04-28T00:50:25.598Z,0.00
2019-04-28T00:51:25.613Z,0.00
2019-04-28T00:52:25.637Z,0.00
2019-04-28T00:53:25.649Z,0.00
2019-04-28T00:54:25.666Z,0.00
2019-04-28T00:55:25.679Z,0.00
2019-04-28T00:56:25.704Z,0.00
2019-04-28T00:57:25.717Z,0.00
2019-04-28T00:58:25.733Z,0.00
2019-04-28T00:59:25.751Z,0.00
2019-04-28T01:00:25.768Z,0.00
2019-04-28T01:01:25.789Z,0.00
2019-04-28T01:02:25.806Z,0.00
2019-04-28T01:03:25.820Z,0.00
2019-04-28T01:04:25.839Z,0.00
2019-04-28T01:05:25.855Z,0.00
2019-04-28T01:06:25.870Z,0.00
2019-04-28T01:07:25.892Z,0.00
2019-04-28T01:08:25.899Z,0.00
2019-04-28T01:09:25.922Z,0.00
2019-04-28T01:10:25.937Z,0.00
2019-04-28T01:11:25.949Z,0.00
2019-04-28T01:12:25.967Z,0.00
2019-04-28T01:13:25.983Z,0.00
2019-04-28T01:14:26.005Z,0.00
2019-04-28T01:15:26.020Z,0.00
2019-04-28T01:16:26.033Z,0.00
2019-04-28T01:17:26.062Z,0.00
2019-04-28T01:18:26.072Z,0.00
2019-04-28T01:19:26.093Z,0.00
2019-04-28T01:20:26.108Z,0.00
2019-04-28T01:21:26.120Z,0.00
2019-04-28T01:22:26.136Z,0.00
2019-04-28T01:23:26.151Z,0.00
2019-04-28T01:24:26.174Z,0.00
2019-04-28T01:25:26.192Z,0.00
2019-04-28T01:26:26.210Z,0.00
2019-04-28T01:27:26.224Z,0.00
2019-04-28T01:28:26.243Z,0.00
2019-04-28T01:29:26.256Z,0.00
2019-04-28T01:30:26.276Z,0.00
2019-04-28T01:31:26.289Z,0.00
2019-04-28T01:32:26.304Z,0.00
2019-04-28T01:33:26.323Z,0.00
2019-04-28T01:34:26.338Z,0.00
2019-04-28T01:35:26.355Z,0.00
2019-04-28T01:36:26.371Z,0.00
2019-04-28T01:37:26.394Z,0.00
2019-04-28T01:38:26.411Z,0.00
2019-04-28T01:39:26.421Z,0.00
2019-04-28T01:40:26.444Z,0.00
2019-04-28T01:41:26.453Z,0.00
2019-04-28T01:42:26.478Z,0.00
2019-04-28T01:43:26.492Z,0.00
2019-04-28T01:44:26.508Z,0.00
2019-04-28T01:45:26.523Z,0.00
2019-04-28T01:46:26.543Z,0.00
2019-04-28T01:47:26.558Z,0.00
2019-04-28T01:48:26.575Z,0.00
2019-04-28T01:49:26.592Z,0.00
2019-04-28T01:50:26.607Z,0.00
2019-04-28T01:51:26.625Z,0.00
2019-04-28T01:52:26.642Z,0.00
2019-04-28T01:53:26.654Z,0.00
2019-04-28T01:54:26.677Z,0.00
2019-04-28T01:55:26.692Z,0.00
2019-04-28T01:56:26.712Z,0.00
2019-04-28T01:57:26.727Z,0.00
2019-04-28T01:58:26.766Z,0.00
2019-04-28T01:59:26.762Z,0.00
2019-04-28T02:00:26.774Z,0.00
2019-04-28T02:01:26.795Z,0.00
2019-04-28T02:02:26.813Z,0.00
2019-04-28T02:03:26.821Z,0.00
2019-04-28T02:04:26.841Z,0.00
2019-04-28T02:05:26.857Z,0.00
2019-04-28T02:06:26.879Z,0.00
2019-04-28T02:07:26.888Z,0.00
2019-04-28T02:08:26.905Z,0.00
2019-04-28T02:09:26.923Z,0.00
2019-04-28T02:10:26.946Z,0.00
2019-04-28T02:11:26.957Z,0.00
2019-04-28T02:12:26.976Z,0.00
2019-04-28T02:13:26.993Z,0.00
2019-04-28T02:14:27.006Z,0.00
2019-04-28T02:15:27.026Z,0.00
2019-04-28T02:16:27.039Z,0.00
2019-04-28T02:17:27.063Z,0.00
2019-04-28T02:18:27.082Z,0.00
2019-04-28T02:19:27.095Z,0.00
2019-04-28T02:20:27.113Z,0.00
2019-04-28T02:21:27.125Z,0.00
2019-04-28T02:22:27.142Z,0.00
2019-04-28T02:23:27.158Z,0.00
2019-04-28T02:24:27.172Z,0.00
2019-04-28T02:25:27.192Z,0.00
2019-04-28T02:26:27.214Z,0.00
2019-04-28T02:27:27.228Z,0.00
2019-04-28T02:28:27.248Z,0.00
2019-04-28T02:29:27.256Z,0.00
2019-04-28T02:30:44.414Z,0.00
2019-04-28T02:31:27.297Z,0.00
2019-04-28T02:32:27.308Z,0.00
2019-04-28T02:33:27.343Z,0.00
2019-04-28T02:34:27.348Z,0.00
2019-04-28T02:35:27.361Z,0.00
2019-04-28T02:36:27.381Z,0.00
2019-04-28T02:37:27.399Z,0.00
2019-04-28T02:38:27.407Z,0.00
2019-04-28T02:39:27.424Z,0.00
2019-04-28T02:40:27.448Z,0.00
2019-04-28T02:41:27.464Z,0.00
2019-04-28T02:42:27.479Z,0.00
2019-04-28T02:43:27.511Z,0.00
2019-04-28T02:44:33.370Z,0.00
2019-04-28T02:45:27.532Z,0.00
2019-04-28T02:46:27.549Z,0.00
2019-04-28T02:47:27.564Z,0.00
2019-04-28T02:48:27.585Z,0.00
2019-04-28T02:49:30.515Z,0.00
2019-04-28T02:50:27.615Z,0.00
2019-04-28T02:51:27.630Z,0.00
2019-04-28T02:52:30.588Z,0.00
2019-04-28T02:53:27.671Z,0.00
2019-04-28T02:54:27.678Z,0.00
2019-04-28T02:55:27.698Z,0.00
2019-04-28T02:56:27.707Z,0.00
2019-04-28T02:57:30.243Z,0.00
2019-04-28T02:58:27.748Z,0.00
2019-04-28T02:59:30.363Z,0.00
2019-04-28T03:00:27.777Z,0.00
2019-04-28T03:01:30.643Z,0.00
2019-04-28T03:02:27.812Z,0.00
2019-04-28T03:03:27.838Z,0.00
2019-04-28T03:04:30.715Z,0.00
2019-04-28T03:05:27.863Z,0.00
2019-04-28T03:06:30.448Z,0.00
2019-04-28T03:07:27.896Z,0.00
2019-04-28T03:08:30.459Z,0.00
2019-04-28T03:09:30.410Z,0.00
2019-04-28T03:10:30.728Z,0.00
2019-04-28T03:11:27.972Z,0.00
2019-04-28T03:12:27.979Z,0.00
2019-04-28T03:13:30.907Z,0.00
2019-04-28T03:14:30.234Z,0.00
2019-04-28T03:15:30.297Z,0.00
2019-04-28T03:16:30.014Z,0.00
2019-04-28T03:17:30.691Z,0.00
2019-04-28T03:18:28.086Z,0.00
2019-04-28T03:19:33.695Z,0.00
2019-04-28T03:20:29.764Z,0.00
2019-04-28T03:21:28.135Z,0.00
2019-04-28T03:22:32.917Z,0.00
2019-04-28T03:23:30.887Z,0.00
2019-04-28T03:24:31.264Z,0.00
2019-04-28T03:25:30.190Z,0.00
2019-04-28T03:26:30.838Z,0.00
2019-04-28T03:27:30.812Z,0.00
2019-04-28T03:28:31.174Z,0.00
2019-04-28T03:29:30.418Z,0.00
2019-04-28T03:30:28.283Z,0.00
2019-04-28T03:31:59.201Z,0.00
2019-04-28T03:32:39.744Z,0.00
2019-04-28T03:33:32.904Z,0.00
2019-04-28T03:34:32.310Z,0.00
2019-04-28T03:35:32.413Z,0.00
2019-04-28T03:36:32.547Z,0.00
2019-04-28T03:37:31.338Z,0.00
2019-04-28T03:38:30.819Z,0.00
2019-04-28T03:39:30.277Z,0.00
2019-04-28T03:40:30.935Z,0.00
2019-04-28T03:41:30.892Z,0.00
2019-04-28T03:42:31.141Z,0.00
2019-04-28T03:43:30.615Z,0.00
2019-04-28T03:44:30.917Z,0.00
2019-04-28T03:45:30.172Z,0.00
2019-04-28T03:46:30.452Z,0.00
2019-04-28T03:47:31.203Z,0.00
2019-04-28T03:48:30.934Z,0.00
2019-04-28T03:49:30.718Z,0.00
2019-04-28T03:50:31.197Z,0.00
2019-04-28T03:51:30.881Z,0.00
2019-04-28T03:52:28.659Z,0.00
2019-04-28T03:53:31.217Z,0.00
2019-04-28T03:54:30.350Z,0.00
2019-04-28T03:55:34.504Z,0.00
2019-04-28T03:56:30.963Z,0.00
2019-04-28T03:57:31.121Z,0.00
2019-04-28T03:58:31.099Z,0.00
2019-04-28T03:59:31.095Z,0.00
2019-04-28T04:00:31.205Z,0.00
2019-04-28T04:01:30.517Z,0.00
2019-04-28T04:02:31.151Z,0.00
2019-04-28T04:03:30.478Z,0.00
2019-04-28T04:04:28.851Z,0.00
2019-04-28T04:05:30.667Z,0.00
2019-04-28T04:06:31.076Z,0.00
2019-04-28T04:07:31.124Z,0.00
2019-04-28T04:08:30.950Z,0.00
2019-04-28T04:09:31.234Z,0.00
2019-04-28T04:10:30.549Z,0.00
2019-04-28T04:11:31.128Z,0.00
2019-04-28T04:12:30.878Z,0.00
2019-04-28T04:13:32.423Z,0.00
2019-04-28T04:14:31.040Z,0.00
2019-04-28T04:15:30.900Z,0.00
2019-04-28T04:16:30.746Z,0.00
2019-04-28T04:17:30.966Z,0.00
2019-04-28T04:18:30.889Z,0.00
2019-04-28T04:19:30.412Z,0.00
2019-04-28T04:20:31.076Z,0.00
2019-04-28T04:21:30.972Z,0.00
2019-04-28T04:22:31.396Z,0.00
2019-04-28T04:23:30.927Z,0.00
2019-04-28T04:24:30.620Z,0.00
2019-04-28T04:25:31.311Z,0.00
2019-04-28T04:26:31.058Z,0.00
2019-04-28T04:27:30.869Z,0.00
2019-04-28T04:28:30.440Z,0.00
2019-04-28T04:29:30.966Z,0.00
2019-04-28T04:30:31.183Z,0.00
2019-04-28T04:31:31.724Z,5.63
2019-04-28T04:32:30.550Z,5.63
2019-04-28T04:33:31.028Z,5.63
2019-04-28T04:34:30.253Z,5.63
2019-04-28T04:35:31.579Z,5.63
2019-04-28T04:36:31.045Z,5.63
2019-04-28T04:37:30.771Z,5.63
2019-04-28T04:38:31.175Z,5.63
2019-04-28T04:39:30.353Z,5.63
2019-04-28T04:40:31.631Z,5.63
2019-04-28T04:41:30.584Z,5.63
2019-04-28T04:42:30.629Z,5.63
2019-04-28T04:43:30.984Z,5.63
2019-04-28T04:44:31.025Z,5.63
2019-04-28T04:45:30.611Z,5.63
2019-04-28T04:46:31.407Z,11.25
2019-04-28T04:47:32.448Z,11.25
2019-04-28T04:48:31.176Z,11.25
2019-04-28T04:49:31.550Z,11.25
2019-04-28T04:50:31.402Z,11.25
2019-04-28T04:51:30.663Z,11.25
2019-04-28T04:52:30.383Z,11.25
2019-04-28T04:53:30.787Z,11.25
2019-04-28T04:54:32.049Z,11.25
2019-04-28T04:55:30.808Z,11.25
2019-04-28T04:56:30.296Z,11.25
2019-04-28T04:57:32.355Z,11.25
2019-04-28T04:58:30.480Z,16.88
2019-04-28T04:59:30.216Z,16.88
2019-04-28T05:00:30.668Z,16.88
2019-04-28T05:01:30.406Z,16.88
2019-04-28T05:02:32.894Z,16.88
2019-04-28T05:03:31.389Z,16.88
2019-04-28T05:04:29.860Z,16.88
2019-04-28T05:05:30.349Z,16.88
2019-04-28T05:06:29.940Z,16.88
2019-04-28T05:07:29.907Z,16.88
2019-04-28T05:08:30.190Z,16.88
2019-04-28T05:09:31.208Z,22.50
2019-04-28T05:10:30.404Z,22.50
2019-04-28T05:11:30.114Z,22.50
2019-04-28T05:12:30.635Z,22.50
2019-04-28T05:13:30.105Z,22.50
2019-04-28T05:14:30.024Z,22.50
2019-04-28T05:15:30.444Z,22.50
2019-04-28T05:16:30.060Z,22.50
2019-04-28T05:17:30.238Z,22.50
2019-04-28T05:18:30.094Z,22.50
2019-04-28T05:19:30.110Z,28.13
2019-04-28T05:20:30.350Z,28.13
2019-04-28T05:21:33.275Z,28.13
2019-04-28T05:22:30.161Z,28.13
2019-04-28T05:23:30.176Z,28.13
2019-04-28T05:24:30.455Z,28.13
2019-04-28T05:25:32.554Z,33.75
2019-04-28T05:26:30.226Z,33.75
2019-04-28T05:27:32.432Z,33.75
2019-04-28T05:28:32.444Z,33.75
2019-04-28T05:29:30.738Z,33.75
2019-04-28T05:30:30.300Z,39.38
2019-04-28T05:31:30.312Z,39.38
2019-04-28T05:32:42.082Z,39.38
2019-04-28T05:33:33.886Z,39.38
2019-04-28T05:34:30.368Z,39.38
2019-04-28T05:35:30.379Z,39.38
2019-04-28T05:36:31.697Z,45.00
2019-04-28T05:37:30.413Z,45.00
2019-04-28T05:38:30.470Z,45.00
2019-04-28T05:39:30.447Z,45.00
2019-04-28T05:40:30.468Z,45.00
2019-04-28T05:41:30.481Z,45.00
2019-04-28T05:42:30.496Z,45.00
2019-04-28T05:43:30.516Z,45.00
2019-04-28T05:44:32.135Z,45.00
2019-04-28T05:45:32.135Z,50.63
2019-04-28T05:46:30.567Z,50.63
2019-04-28T05:47:30.736Z,50.63
2019-04-28T05:48:30.605Z,50.63
2019-04-28T05:49:30.617Z,50.63
2019-04-28T05:50:30.633Z,56.25
2019-04-28T05:51:30.654Z,56.25
2019-04-28T05:52:30.667Z,56.25
2019-04-28T05:53:30.691Z,56.25
2019-04-28T05:54:31.497Z,61.88
2019-04-28T05:55:30.722Z,61.88
2019-04-28T05:56:30.738Z,61.88
2019-04-28T05:57:30.758Z,61.88
2019-04-28T05:58:30.770Z,67.50
2019-04-28T05:59:30.790Z,67.50
2019-04-28T06:00:30.808Z,67.50
2019-04-28T06:01:30.826Z,67.50
2019-04-28T06:02:30.839Z,73.13
2019-04-28T06:03:30.866Z,73.13
2019-04-28T06:04:30.874Z,73.13
2019-04-28T06:05:31.946Z,78.75
2019-04-28T06:06:30.915Z,78.75
2019-04-28T06:07:30.930Z,78.75
2019-04-28T06:08:30.943Z,78.75
2019-04-28T06:09:30.961Z,84.38
2019-04-28T06:10:30.983Z,84.38
2019-04-28T06:11:30.996Z,84.38
2019-04-28T06:12:31.948Z,84.38
2019-04-28T06:13:31.035Z,84.38
2019-04-28T06:14:31.048Z,90.00
2019-04-28T06:15:31.067Z,90.00
2019-04-28T06:16:31.089Z,90.00
2019-04-28T06:17:31.108Z,90.00
2019-04-28T06:18:31.119Z,90.00
2019-04-28T06:19:31.137Z,90.00
2019-04-28T06:20:31.156Z,90.00
2019-04-28T06:21:31.177Z,90.00
2019-04-28T06:22:31.192Z,90.00
2019-04-28T06:23:31.204Z,90.00
2019-04-28T06:24:31.229Z,90.00
2019-04-28T06:25:31.242Z,90.00
2019-04-28T06:26:31.262Z,90.00
2019-04-28T06:27:32.786Z,90.00
2019-04-28T06:28:31.292Z,95.63
2019-04-28T06:29:31.313Z,95.63
2019-04-28T06:30:31.331Z,95.63
2019-04-28T06:31:31.352Z,95.63
2019-04-28T06:32:31.367Z,95.63
2019-04-28T06:33:31.381Z,95.63
2019-04-28T06:34:31.399Z,95.63
2019-04-28T06:35:31.415Z,101.25
2019-04-28T06:36:31.438Z,101.25
2019-04-28T06:37:31.459Z,101.25
2019-04-28T06:38:31.472Z,106.88
2019-04-28T06:39:31.488Z,106.88
2019-04-28T06:40:31.504Z,106.88
2019-04-28T06:41:31.527Z,112.50
2019-04-28T06:42:31.540Z,112.50
2019-04-28T06:43:31.560Z,112.50
2019-04-28T06:44:31.580Z,112.50
2019-04-28T06:45:31.599Z,112.50
2019-04-28T06:46:31.618Z,112.50
2019-04-28T06:47:31.634Z,106.88
2019-04-28T06:48:31.655Z,112.50
2019-04-28T06:49:31.667Z,112.50
2019-04-28T06:50:31.684Z,112.50
2019-04-28T06:51:31.720Z,112.50
2019-04-28T06:52:31.719Z,112.50
2019-04-28T06:53:31.745Z,112.50
2019-04-28T06:54:31.755Z,112.50
2019-04-28T06:55:31.779Z,118.13
2019-04-28T06:56:31.792Z,118.13
2019-04-28T06:57:31.812Z,118.13
2019-04-28T06:58:31.842Z,118.13
2019-04-28T06:59:31.849Z,118.13
2019-04-28T07:00:31.863Z,118.13
2019-04-28T07:01:31.889Z,118.13
2019-04-28T07:02:31.906Z,118.13
2019-04-28T07:03:31.921Z,118.13
2019-04-28T07:04:31.942Z,118.13
2019-04-28T07:05:31.960Z,118.13
2019-04-28T07:06:31.978Z,118.13
2019-04-28T07:07:31.991Z,118.13
2019-04-28T07:08:32.012Z,118.13
2019-04-28T07:09:32.029Z,118.13
2019-04-28T07:10:32.053Z,118.13
2019-04-28T07:11:32.063Z,118.13
2019-04-28T07:12:32.081Z,118.13
2019-04-28T07:13:32.103Z,118.13
2019-04-28T07:14:32.124Z,118.13
2019-04-28T07:15:32.142Z,118.13
2019-04-28T07:16:32.154Z,118.13
2019-04-28T07:17:32.176Z,118.13
2019-04-28T07:18:32.194Z,118.13
2019-04-28T07:19:33.555Z,112.50
2019-04-28T07:20:32.228Z,112.50
2019-04-28T07:21:32.249Z,112.50
2019-04-28T07:22:32.263Z,118.13
2019-04-28T07:23:32.281Z,118.13
2019-04-28T07:24:32.306Z,118.13
2019-04-28T07:25:32.319Z,118.13
2019-04-28T07:26:32.340Z,118.13
2019-04-28T07:27:32.359Z,112.50
2019-04-28T07:28:32.439Z,106.88
2019-04-28T07:29:32.391Z,106.88
2019-04-28T07:30:32.414Z,112.50
2019-04-28T07:31:32.434Z,112.50
2019-04-28T07:32:32.449Z,118.13
2019-04-28T07:33:36.109Z,118.13
2019-04-28T07:34:32.488Z,118.13
2019-04-28T07:35:32.503Z,112.50
2019-04-28T07:36:32.522Z,118.13
2019-04-28T07:37:32.538Z,118.13
2019-04-28T07:38:32.555Z,123.75
2019-04-28T07:39:32.572Z,123.75
2019-04-28T07:40:32.601Z,129.38
2019-04-28T07:41:32.615Z,129.38
2019-04-28T07:42:32.633Z,123.75
2019-04-28T07:43:32.655Z,118.13
2019-04-28T07:44:32.672Z,112.50
2019-04-28T07:45:32.696Z,118.13
2019-04-28T07:46:32.709Z,118.13
2019-04-28T07:47:32.723Z,118.13
2019-04-28T07:48:32.744Z,123.75
2019-04-28T07:49:32.761Z,129.38
2019-04-28T07:50:32.781Z,140.63
2019-04-28T07:51:32.796Z,129.38
2019-04-28T07:52:32.815Z,112.50
2019-04-28T07:53:32.837Z,112.50
2019-04-28T07:54:32.855Z,112.50
2019-04-28T07:55:32.872Z,123.75
2019-04-28T07:56:32.885Z,135.00
2019-04-28T07:57:32.908Z,135.00
2019-04-28T07:58:32.928Z,135.00
2019-04-28T07:59:32.948Z,118.13
2019-04-28T08:00:32.959Z,112.50
2019-04-28T08:01:32.980Z,118.13
2019-04-28T08:02:33.000Z,112.50
2019-04-28T08:03:33.019Z,118.13
2019-04-28T08:04:33.039Z,118.13
2019-04-28T08:05:33.056Z,140.63
2019-04-28T08:06:33.075Z,146.25
2019-04-28T08:07:33.099Z,146.25
2019-04-28T08:08:33.115Z,140.63
2019-04-28T08:09:33.131Z,129.38
2019-04-28T08:10:33.151Z,123.75
2019-04-28T08:11:33.164Z,129.38
2019-04-28T08:12:33.183Z,123.75
2019-04-28T08:13:33.200Z,129.38
2019-04-28T08:14:33.221Z,135.00
2019-04-28T08:15:33.244Z,129.38
2019-04-28T08:16:33.264Z,140.63
2019-04-28T08:17:33.280Z,129.38
2019-04-28T08:18:33.301Z,129.38
2019-04-28T08:19:33.317Z,146.25
2019-04-28T08:20:33.338Z,135.00
2019-04-28T08:21:33.353Z,146.25
2019-04-28T08:22:33.373Z,146.25
2019-04-28T08:23:46.314Z,168.75
2019-04-28T08:24:33.407Z,146.25
2019-04-28T08:25:33.432Z,146.25
2019-04-28T08:26:36.223Z,151.88
2019-04-28T08:27:33.467Z,146.25
2019-04-28T08:28:33.485Z,151.88
2019-04-28T08:29:33.506Z,174.38
2019-04-28T08:30:33.522Z,174.38
2019-04-28T08:31:33.536Z,157.50
2019-04-28T08:32:33.564Z,151.88
2019-04-28T08:33:33.574Z,146.25
2019-04-28T08:34:33.601Z,174.38
2019-04-28T08:35:33.616Z,157.50
2019-04-28T08:36:33.634Z,157.50
2019-04-28T08:37:33.658Z,140.63
2019-04-28T08:38:33.673Z,135.00
2019-04-28T08:39:33.690Z,129.38
2019-04-28T08:40:33.712Z,129.38
2019-04-28T08:41:33.725Z,118.13
2019-04-28T08:42:33.749Z,101.25
2019-04-28T08:43:33.769Z,84.38
2019-04-28T08:44:33.786Z,84.38
2019-04-28T08:45:33.808Z,73.13
2019-04-28T08:46:33.821Z,50.63
2019-04-28T08:47:33.847Z,45.00
2019-04-28T08:48:33.931Z,45.00
2019-04-28T08:49:33.883Z,45.00
2019-04-28T08:50:33.896Z,50.63
2019-04-28T08:51:33.919Z,61.88
2019-04-28T08:52:33.937Z,67.50
2019-04-28T08:53:33.953Z,73.13
2019-04-28T08:54:33.974Z,73.13
2019-04-28T08:55:35.247Z,73.13
2019-04-28T08:56:34.066Z,67.50
2019-04-28T08:57:34.029Z,67.50
2019-04-28T08:58:34.051Z,67.50
2019-04-28T08:59:34.068Z,67.50
2019-04-28T09:00:34.084Z,67.50
2019-04-28T09:01:34.107Z,61.88
2019-04-28T09:02:34.128Z,67.50
2019-04-28T09:03:34.144Z,61.88
2019-04-28T09:04:34.161Z,56.25
2019-04-28T09:05:34.179Z,50.63
2019-04-28T09:06:34.204Z,50.63
2019-04-28T09:07:34.215Z,45.00
2019-04-28T09:08:34.237Z,39.38
2019-04-28T09:09:34.251Z,39.38
2019-04-28T09:10:34.272Z,39.38
2019-04-28T09:11:34.294Z,39.38
2019-04-28T09:12:34.309Z,39.38
2019-04-28T09:13:34.331Z,45.00
2019-04-28T09:14:34.351Z,45.00
2019-04-28T09:15:34.366Z,45.00
2019-04-28T09:16:34.379Z,50.63
2019-04-28T09:17:34.399Z,56.25
2019-04-28T09:18:34.415Z,61.88
2019-04-28T09:19:34.438Z,61.88
2019-04-28T09:20:34.457Z,67.50
2019-04-28T09:21:34.469Z,73.13
2019-04-28T09:22:34.487Z,73.13
2019-04-28T09:23:34.514Z,73.13
2019-04-28T09:24:34.529Z,67.50
2019-04-28T09:25:34.546Z,61.88
2019-04-28T09:26:36.907Z,61.88
2019-04-28T09:27:34.586Z,56.25
2019-04-28T09:28:34.602Z,61.88
2019-04-28T09:29:34.620Z,61.88
2019-04-28T09:30:34.638Z,73.13
2019-04-28T09:31:34.653Z,78.75
2019-04-28T09:32:34.666Z,84.38
2019-04-28T09:33:34.686Z,90.00
2019-04-28T09:34:34.709Z,95.63
2019-04-28T09:35:34.719Z,95.63
2019-04-28T09:36:34.742Z,101.25
2019-04-28T09:37:34.757Z,101.25
2019-04-28T09:38:34.776Z,106.88
2019-04-28T09:39:34.795Z,112.50
2019-04-28T09:40:34.811Z,123.75
2019-04-28T09:41:34.837Z,129.38
2019-04-28T09:42:34.850Z,140.63
2019-04-28T09:43:34.867Z,151.88
2019-04-28T09:44:34.883Z,157.50
2019-04-28T09:45:34.903Z,157.50
2019-04-28T09:46:34.918Z,163.13
2019-04-28T09:47:34.940Z,163.13
2019-04-28T09:48:34.957Z,168.75
2019-04-28T09:49:34.979Z,168.75
2019-04-28T09:50:34.989Z,174.38
2019-04-28T09:51:35.008Z,180.00
2019-04-28T09:52:35.031Z,185.63
2019-04-28T09:53:35.048Z,191.25
2019-04-28T09:54:35.064Z,196.88
2019-04-28T09:55:35.096Z,202.50
2019-04-28T09:56:35.102Z,208.13
2019-04-28T09:57:35.117Z,213.75
2019-04-28T09:58:35.138Z,213.75
2019-04-28T09:59:35.157Z,219.38
2019-04-28T10:00:35.171Z,225.00
2019-04-28T10:01:35.191Z,225.00
2019-04-28T10:02:35.211Z,225.00
2019-04-28T10:03:35.230Z,230.63
2019-04-28T10:04:41.311Z,225.00
2019-04-28T10:05:35.268Z,225.00
2019-04-28T10:06:35.291Z,219.38
2019-04-28T10:07:35.307Z,219.38
2019-04-28T10:08:36.669Z,225.00
2019-04-28T10:09:35.346Z,219.38
2019-04-28T10:10:35.360Z,213.75
2019-04-28T10:11:35.381Z,213.75
2019-04-28T10:12:35.399Z,208.13
2019-04-28T10:13:35.423Z,202.50
2019-04-28T10:14:35.440Z,202.50
2019-04-28T10:15:35.452Z,202.50
2019-04-28T10:16:35.479Z,202.50
2019-04-28T10:17:35.490Z,196.88
2019-04-28T10:18:35.511Z,196.88
2019-04-28T10:19:35.535Z,196.88
2019-04-28T10:20:35.548Z,196.88
2019-04-28T10:21:35.570Z,196.88
2019-04-28T10:22:35.586Z,196.88
2019-04-28T10:23:35.612Z,191.25
2019-04-28T10:24:35.632Z,191.25
2019-04-28T10:25:35.647Z,191.25
2019-04-28T10:26:35.664Z,191.25
2019-04-28T10:27:35.688Z,196.88
2019-04-28T10:28:35.706Z,196.88
2019-04-28T10:29:35.726Z,196.88
2019-04-28T10:30:35.746Z,202.50
2019-04-28T10:31:35.765Z,202.50
2019-04-28T10:32:35.779Z,208.13
2019-04-28T10:33:35.799Z,213.75
2019-04-28T10:34:35.822Z,213.75
2019-04-28T10:35:35.840Z,219.38
2019-04-28T10:36:35.863Z,219.38
2019-04-28T10:37:35.885Z,225.00
2019-04-28T10:38:35.897Z,225.00
2019-04-28T10:39:35.969Z,230.63
2019-04-28T10:40:35.935Z,225.00
2019-04-28T10:41:35.950Z,230.63
2019-04-28T10:42:35.970Z,236.25
2019-04-28T10:43:35.995Z,236.25
2019-04-28T10:44:36.014Z,230.63
2019-04-28T10:45:36.032Z,225.00
2019-04-28T10:46:36.052Z,225.00
2019-04-28T10:47:36.075Z,230.63
2019-04-28T10:48:36.087Z,230.63
2019-04-28T10:49:36.109Z,230.63
2019-04-28T10:50:36.127Z,230.63
2019-04-28T10:51:36.150Z,225.00
2019-04-28T10:52:36.170Z,208.13
2019-04-28T10:53:36.185Z,191.25
2019-04-28T10:54:36.207Z,168.75
2019-04-28T10:55:36.225Z,140.63
2019-04-28T10:56:36.243Z,135.00
2019-04-28T10:57:36.261Z,135.00
2019-04-28T10:58:36.288Z,129.38
2019-04-28T10:59:36.299Z,106.88
2019-04-28T11:00:36.318Z,90.00
2019-04-28T11:01:36.346Z,90.00
2019-04-28T11:02:36.358Z,101.25
2019-04-28T11:03:36.378Z,112.50
2019-04-28T11:04:36.407Z,135.00
2019-04-28T11:05:36.420Z,157.50
2019-04-28T11:06:36.438Z,180.00
2019-04-28T11:07:36.460Z,185.63
2019-04-28T11:08:36.480Z,180.00
2019-04-28T11:09:36.493Z,180.00
2019-04-28T11:10:36.520Z,185.63
2019-04-28T11:11:36.536Z,196.88
2019-04-28T11:12:36.555Z,208.13
2019-04-28T11:13:36.577Z,219.38
2019-04-28T11:14:36.593Z,225.00
2019-04-28T11:15:36.610Z,208.13
2019-04-28T11:16:36.639Z,213.75
2019-04-28T11:17:36.649Z,219.38
2019-04-28T11:18:36.667Z,225.00
2019-04-28T11:19:36.684Z,230.63
2019-04-28T11:20:36.704Z,253.13
2019-04-28T11:21:36.729Z,264.38
2019-04-28T11:22:36.745Z,264.38
2019-04-28T11:23:36.758Z,253.13
2019-04-28T11:24:36.778Z,258.75
2019-04-28T11:25:36.804Z,247.50
2019-04-28T11:26:36.816Z,253.13
2019-04-28T11:27:36.837Z,247.50
2019-04-28T11:28:37.910Z,236.25
2019-04-28T11:29:36.880Z,225.00
2019-04-28T11:30:36.900Z,219.38
2019-04-28T11:31:36.915Z,208.13
2019-04-28T11:32:36.934Z,208.13
2019-04-28T11:33:36.955Z,202.50
2019-04-28T11:34:36.974Z,202.50
2019-04-28T11:35:36.998Z,196.88
2019-04-28T11:36:37.014Z,196.88
2019-04-28T11:37:37.033Z,191.25
2019-04-28T11:38:37.047Z,191.25
2019-04-28T11:39:37.118Z,185.63
2019-04-28T11:40:37.089Z,180.00
2019-04-28T11:41:37.107Z,174.38
2019-04-28T11:42:37.127Z,168.75
2019-04-28T11:43:37.154Z,168.75
2019-04-28T11:44:37.166Z,163.13
2019-04-28T11:45:37.183Z,163.13
2019-04-28T11:46:37.206Z,157.50
2019-04-28T11:47:37.226Z,157.50
2019-04-28T11:48:37.246Z,157.50
2019-04-28T11:49:37.260Z,151.88
2019-04-28T11:50:37.279Z,151.88
2019-04-28T11:51:37.303Z,146.25
2019-04-28T11:52:37.325Z,146.25
2019-04-28T11:53:37.337Z,140.63
2019-04-28T11:54:37.363Z,140.63
2019-04-28T11:55:37.384Z,140.63
2019-04-28T11:56:41.563Z,112.50
2019-04-28T11:57:37.418Z,112.50
2019-04-28T11:58:37.445Z,95.63
2019-04-28T11:59:37.454Z,95.63
2019-04-28T12:00:37.479Z,95.63
2019-04-28T12:01:37.494Z,90.00
2019-04-28T12:02:37.518Z,90.00
2019-04-28T12:03:37.531Z,95.63
2019-04-28T12:04:37.554Z,95.63
2019-04-28T12:05:38.519Z,101.25
2019-04-28T12:06:37.597Z,112.50
2019-04-28T12:07:37.608Z,112.50
2019-04-28T12:08:37.636Z,112.50
2019-04-28T12:09:37.657Z,129.38
2019-04-28T12:10:37.667Z,135.00
2019-04-28T12:11:37.690Z,146.25
2019-04-28T12:12:37.709Z,151.88
2019-04-28T12:13:37.734Z,157.50
2019-04-28T12:14:37.752Z,157.50
2019-04-28T12:15:37.765Z,163.13
2019-04-28T12:16:37.791Z,163.13
2019-04-28T12:17:37.804Z,157.50
2019-04-28T12:18:37.824Z,157.50
2019-04-28T12:19:37.841Z,163.13
2019-04-28T12:20:37.862Z,185.63
2019-04-28T12:21:37.885Z,185.63
2019-04-28T12:22:37.905Z,157.50
2019-04-28T12:23:37.927Z,140.63
2019-04-28T12:24:37.945Z,140.63
2019-04-28T12:25:37.966Z,140.63
2019-04-28T12:26:37.982Z,140.63
2019-04-28T12:27:38.002Z,140.63
2019-04-28T12:28:38.025Z,146.25
2019-04-28T12:29:38.044Z,146.25
2019-04-28T12:30:38.064Z,140.63
2019-04-28T12:31:38.081Z,140.63
2019-04-28T12:32:38.099Z,135.00
2019-04-28T12:33:38.121Z,129.38
2019-04-28T12:34:38.137Z,118.13
2019-04-28T12:35:47.596Z,106.88
2019-04-28T12:36:38.177Z,101.25
2019-04-28T12:37:38.198Z,106.88
2019-04-28T12:38:38.219Z,101.25
2019-04-28T12:39:38.242Z,95.63
2019-04-28T12:40:38.261Z,95.63
2019-04-28T12:41:38.276Z,95.63
2019-04-28T12:42:38.299Z,95.63
2019-04-28T12:43:38.319Z,95.63
2019-04-28T12:44:38.339Z,101.25
2019-04-28T12:45:38.360Z,95.63
2019-04-28T12:46:38.381Z,95.63
2019-04-28T12:47:38.400Z,90.00
2019-04-28T12:48:38.422Z,84.38
2019-04-28T12:49:38.439Z,78.75
2019-04-28T12:50:38.459Z,73.13
2019-04-28T12:51:38.477Z,67.50
2019-04-28T12:52:38.494Z,61.88